Terminal Aerodrome Forecast
Issued by NWS Sterling, VA

Current Version | Previous Version | Graphics & Text | Print | Product List | Glossary On
Versions: 1 2 3 4 5 6 7 8 9 10 11 12 13 14 15 16 17 18 19 20 21 22 23 24 25 26
152
FTUS41 KLWX 232329
TAFDCA
TAF
KDCA 232329Z 2400/2424 22012G18KT P6SM BKN080
     FM240300 21010G18KT 6SM SHRA BKN070 WS020/22040KT
     FM240900 21010G20KT 4SM SHRA OVC035 WS020/22040KT
     FM241100 27010G18KT 4SM SHRA OVC035
     FM241300 29012G20KT P6SM SCT035
     FM241800 29011G18KT P6SM SCT250
     FM242300 30009KT P6SM FEW250=

USA.gov is the U.S. government's official web portal to all federal, state and local government web resources and services.